createdAt,value
2018-04-12T00:00:16.856Z,99.90
2018-04-12T00:02:44.393Z,99.90
2018-04-12T00:05:12.680Z,99.90
2018-04-12T00:07:40.959Z,99.90
2018-04-12T00:10:09.267Z,99.90
2018-04-12T00:12:36.817Z,99.90
2018-04-12T00:15:04.359Z,99.90
2018-04-12T00:17:32.640Z,99.90
2018-04-12T00:20:00.176Z,99.90
2018-04-12T00:22:27.744Z,99.90
2018-04-12T00:24:56.053Z,99.90
2018-04-12T00:27:23.574Z,99.90
2018-04-12T00:29:51.133Z,99.90
2018-04-12T00:32:19.458Z,99.90
2018-04-12T00:34:46.974Z,99.90
2018-04-12T00:37:14.493Z,99.90
2018-04-12T00:39:42.028Z,99.90
2018-04-12T00:42:09.589Z,99.90
2018-04-12T00:44:37.098Z,99.90
2018-04-12T00:47:05.416Z,99.90
2018-04-12T00:49:32.939Z,99.90
2018-04-12T00:52:00.438Z,99.90
2018-04-12T00:54:27.950Z,99.90
2018-04-12T00:56:56.252Z,99.90
2018-04-12T00:59:23.765Z,99.90
2018-04-12T01:01:51.300Z,99.90
2018-04-12T01:04:18.806Z,99.90
2018-04-12T01:06:47.096Z,99.90
2018-04-12T01:09:14.614Z,99.90
2018-04-12T01:11:42.157Z,99.90
2018-04-12T01:14:09.857Z,99.90
2018-04-12T01:16:38.277Z,99.90
2018-04-12T01:19:05.988Z,99.90
2018-04-12T01:21:33.570Z,99.90
2018-04-12T01:24:01.298Z,99.90
2018-04-12T01:26:28.823Z,99.90
2018-04-12T01:28:56.347Z,99.90
2018-04-12T01:31:24.280Z,99.90
2018-04-12T01:33:51.821Z,99.90
2018-04-12T01:36:19.361Z,99.90
2018-04-12T01:38:46.869Z,99.90
2018-04-12T01:41:14.381Z,99.90
2018-04-12T01:43:41.911Z,99.90
2018-04-12T01:46:09.429Z,99.90
2018-04-12T01:48:36.945Z,99.90
2018-04-12T01:51:04.446Z,99.90
2018-04-12T01:53:31.981Z,99.90
2018-04-12T01:55:59.522Z,99.90
2018-04-12T01:58:27.061Z,99.90
2018-04-12T02:00:54.609Z,99.90
2018-04-12T02:03:22.156Z,99.90
2018-04-12T02:05:49.687Z,99.90
2018-04-12T02:08:17.225Z,99.90
2018-04-12T02:10:44.759Z,99.90
2018-04-12T02:13:12.269Z,99.90
2018-04-12T02:15:39.769Z,99.90
2018-04-12T02:18:07.310Z,99.90
2018-04-12T02:20:34.837Z,99.90
2018-04-12T02:23:02.378Z,99.90
2018-04-12T02:25:29.893Z,99.90
2018-04-12T02:27:57.401Z,99.90
2018-04-12T02:30:24.933Z,99.90
2018-04-12T02:32:52.452Z,99.90
2018-04-12T02:35:19.972Z,99.90
2018-04-12T02:37:47.482Z,99.90
2018-04-12T02:40:15.000Z,99.90
2018-04-12T02:42:42.544Z,99.90
2018-04-12T02:45:10.080Z,99.90
2018-04-12T02:47:37.628Z,99.90
2018-04-12T02:50:05.154Z,99.90
2018-04-12T02:52:32.694Z,99.90
2018-04-12T02:55:00.216Z,99.90
2018-04-12T02:57:27.756Z,99.90
2018-04-12T02:59:55.304Z,99.90
2018-04-12T03:02:22.813Z,99.90
2018-04-12T03:04:50.321Z,99.90
2018-04-12T03:07:18.629Z,99.90
2018-04-12T03:09:46.149Z,99.90
2018-04-12T03:12:13.694Z,99.90
2018-04-12T03:14:41.203Z,99.90
2018-04-12T03:17:08.743Z,99.90
2018-04-12T03:19:36.287Z,99.90
2018-04-12T03:22:04.575Z,99.90
2018-04-12T03:24:32.102Z,99.90
2018-04-12T03:26:59.659Z,99.90
2018-04-12T03:29:27.180Z,99.90
2018-04-12T03:31:54.711Z,99.90
2018-04-12T03:34:22.231Z,99.90
2018-04-12T03:36:49.742Z,99.90
2018-04-12T03:39:17.261Z,99.90
2018-04-12T03:41:44.823Z,99.90
2018-04-12T03:44:13.134Z,99.90
2018-04-12T03:46:40.679Z,99.90
2018-04-12T03:49:08.289Z,99.90
2018-04-12T03:51:35.775Z,99.90
2018-04-12T03:54:03.287Z,99.90
2018-04-12T03:56:30.810Z,99.90
2018-04-12T03:58:58.324Z,99.90
2018-04-12T04:01:25.833Z,99.90
2018-04-12T04:03:53.353Z,99.90
2018-04-12T04:06:20.866Z,99.90
2018-04-12T04:08:48.386Z,99.90
2018-04-12T04:11:15.937Z,99.90
2018-04-12T04:13:44.218Z,99.90
2018-04-12T04:16:24.179Z,99.90
2018-04-12T04:19:03.569Z,99.90
2018-04-12T04:21:31.119Z,99.90
2018-04-12T04:23:58.637Z,99.90
2018-04-12T04:26:26.192Z,99.90
2018-04-12T04:28:53.704Z,99.90
2018-04-12T04:31:21.250Z,99.90
2018-04-12T04:33:48.758Z,99.90
2018-04-12T04:36:17.032Z,99.90
2018-04-12T04:38:45.331Z,99.90
2018-04-12T04:41:12.839Z,99.90
2018-04-12T04:43:40.374Z,99.90
2018-04-12T04:46:07.925Z,99.90
2018-04-12T04:48:35.444Z,99.90
2018-04-12T04:51:03.726Z,99.90
2018-04-12T04:53:31.262Z,99.90
2018-04-12T04:55:58.788Z,99.90
2018-04-12T04:58:26.319Z,99.90
2018-04-12T05:00:53.880Z,99.90
2018-04-12T05:03:21.440Z,99.90
2018-04-12T05:05:48.989Z,99.90
2018-04-12T05:08:16.496Z,99.90
2018-04-12T05:10:44.035Z,99.90
2018-04-12T05:13:11.553Z,99.90
2018-04-12T05:15:39.169Z,99.90
2018-04-12T05:18:07.399Z,99.90
2018-04-12T05:20:34.948Z,99.90
2018-04-12T05:23:02.509Z,99.90
2018-04-12T05:25:30.030Z,99.90
2018-04-12T05:27:57.575Z,99.90
2018-04-12T05:30:25.130Z,99.90
2018-04-12T05:32:52.663Z,99.90
2018-04-12T05:35:20.223Z,99.90
2018-04-12T05:37:47.737Z,99.90
2018-04-12T05:40:15.280Z,99.90
2018-04-12T05:42:42.798Z,99.90
2018-04-12T05:45:10.345Z,99.90
2018-04-12T05:47:37.894Z,99.90
2018-04-12T05:50:05.410Z,99.90
2018-04-12T05:52:32.920Z,99.90
2018-04-12T05:55:00.439Z,99.90
2018-04-12T05:57:28.754Z,99.90
2018-04-12T05:59:56.300Z,99.90
2018-04-12T06:02:23.827Z,99.90
2018-04-12T06:04:52.142Z,99.90
2018-04-12T06:07:19.723Z,99.90
2018-04-12T06:09:47.251Z,99.90
2018-04-12T06:12:14.780Z,99.90
2018-04-12T06:14:42.335Z,99.90
2018-04-12T06:17:10.647Z,99.90
2018-04-12T06:19:38.179Z,99.90
2018-04-12T06:22:05.707Z,99.90
2018-04-12T06:24:33.232Z,99.90
2018-04-12T06:27:00.774Z,99.90
2018-04-12T06:29:28.349Z,99.90
2018-04-12T06:31:55.920Z,99.90
2018-04-12T06:34:23.452Z,99.90
2018-04-12T06:36:50.980Z,99.90
2018-04-12T06:39:18.513Z,99.90
2018-04-12T06:41:46.059Z,99.80
2018-04-12T06:44:13.596Z,97.10
2018-04-12T06:46:41.164Z,98.00
2018-04-12T06:49:08.727Z,98.60
2018-04-12T06:51:36.252Z,99.90
2018-04-12T06:54:03.851Z,98.80
2018-04-12T06:56:31.389Z,97.50
2018-04-12T06:58:58.915Z,97.30
2018-04-12T07:01:27.253Z,98.00
2018-04-12T07:03:54.847Z,98.00
2018-04-12T07:06:22.379Z,97.30
2018-04-12T07:08:49.931Z,97.40
2018-04-12T07:11:17.487Z,98.10
2018-04-12T07:13:45.063Z,98.00
2018-04-12T07:16:12.600Z,98.30
2018-04-12T07:18:40.152Z,97.60
2018-04-12T07:21:07.716Z,97.40
2018-04-12T07:23:35.253Z,97.00
2018-04-12T07:26:02.781Z,96.80
2018-04-12T07:28:30.321Z,96.00
2018-04-12T07:30:57.874Z,96.90
2018-04-12T07:33:25.406Z,96.10
2018-04-12T07:35:52.964Z,97.20
2018-04-12T07:38:20.482Z,96.80
2018-04-12T07:40:48.010Z,95.90
2018-04-12T07:43:15.548Z,93.90
2018-04-12T07:45:43.071Z,92.80
2018-04-12T07:48:10.580Z,91.80
2018-04-12T07:50:38.082Z,91.60
2018-04-12T07:53:05.621Z,90.80
2018-04-12T07:55:33.130Z,90.20
2018-04-12T07:58:00.646Z,90.20
2018-04-12T08:00:28.954Z,88.00
2018-04-12T08:02:56.473Z,88.10
2018-04-12T08:05:24.013Z,87.10
2018-04-12T08:07:51.534Z,86.20
2018-04-12T08:10:19.075Z,86.30
2018-04-12T08:12:46.625Z,86.00
2018-04-12T08:15:14.178Z,85.90
2018-04-12T08:17:41.687Z,83.80
2018-04-12T08:20:09.214Z,82.40
2018-04-12T08:22:36.756Z,82.70
2018-04-12T08:25:04.327Z,81.30
2018-04-12T08:27:31.841Z,80.80
2018-04-12T08:29:59.382Z,80.20
2018-04-12T08:32:26.895Z,78.20
2018-04-12T08:34:54.442Z,80.40
2018-04-12T08:37:21.981Z,79.10
2018-04-12T08:39:50.256Z,78.50
2018-04-12T08:42:18.533Z,78.20
2018-04-12T08:44:46.067Z,78.00
2018-04-12T08:47:13.613Z,76.90
2018-04-12T08:49:41.132Z,77.80
2018-04-12T08:52:08.665Z,76.40
2018-04-12T08:54:36.211Z,75.60
2018-04-12T08:57:03.746Z,75.20
2018-04-12T08:59:31.255Z,75.00
2018-04-12T09:01:58.770Z,74.80
2018-04-12T09:04:26.292Z,72.80
2018-04-12T09:06:53.800Z,73.30
2018-04-12T09:09:21.315Z,74.00
2018-04-12T09:11:48.850Z,73.40
2018-04-12T09:14:16.384Z,71.70
2018-04-12T09:16:44.708Z,72.60
2018-04-12T09:19:12.249Z,72.70
2018-04-12T09:21:39.785Z,71.30
2018-04-12T09:24:08.095Z,73.50
2018-04-12T09:26:35.659Z,73.60
2018-04-12T09:29:03.174Z,75.00
2018-04-12T09:31:30.692Z,76.70
2018-04-12T09:33:58.238Z,76.20
2018-04-12T09:36:25.797Z,76.30
2018-04-12T09:38:53.317Z,79.20
2018-04-12T09:41:21.642Z,78.70
2018-04-12T09:43:49.144Z,78.60
2018-04-12T09:46:17.504Z,74.80
2018-04-12T09:48:45.031Z,74.70
2018-04-12T09:51:12.554Z,76.00
2018-04-12T09:53:40.870Z,78.10
2018-04-12T09:56:08.420Z,77.90
2018-04-12T09:58:35.927Z,74.80
2018-04-12T10:01:09.916Z,77.10
2018-04-12T10:03:37.430Z,77.00
2018-04-12T10:06:04.987Z,79.10
2018-04-12T10:08:32.574Z,75.70
2018-04-12T10:11:00.098Z,75.80
2018-04-12T10:13:27.639Z,74.20
2018-04-12T10:15:55.908Z,74.50
2018-04-12T10:18:23.466Z,74.60
2018-04-12T10:20:51.760Z,72.80
2018-04-12T10:23:19.269Z,72.70
2018-04-12T10:25:46.787Z,75.80
2018-04-12T10:28:14.316Z,76.80
2018-04-12T10:30:41.846Z,72.90
2018-04-12T10:33:09.362Z,74.60
2018-04-12T10:35:36.878Z,75.20
2018-04-12T10:38:04.405Z,73.10
2018-04-12T10:40:31.941Z,74.00
2018-04-12T10:42:59.470Z,72.20
2018-04-12T10:45:26.998Z,71.20
2018-04-12T10:47:54.518Z,73.50
2018-04-12T10:50:22.071Z,71.80
2018-04-12T10:52:49.588Z,71.40
2018-04-12T10:55:17.108Z,71.30
2018-04-12T10:57:44.657Z,75.90
2018-04-12T11:00:12.187Z,70.20
2018-04-12T11:02:40.514Z,66.80
2018-04-12T11:05:08.054Z,66.80
2018-04-12T11:07:35.614Z,73.00
2018-04-12T11:10:03.148Z,63.80
2018-04-12T11:12:30.691Z,64.10
2018-04-12T11:14:58.985Z,66.40
2018-04-12T11:17:27.295Z,62.10
2018-04-12T11:19:54.843Z,62.10
2018-04-12T11:22:22.443Z,63.80
2018-04-12T11:24:51.514Z,64.50
2018-04-12T11:27:19.089Z,64.50
2018-04-12T11:29:46.657Z,68.40
2018-04-12T11:32:14.236Z,64.20
2018-04-12T11:34:42.530Z,63.30
2018-04-12T11:37:10.076Z,63.20
2018-04-12T11:39:37.609Z,62.30
2018-04-12T11:42:05.159Z,61.90
2018-04-12T11:44:32.667Z,60.60
2018-04-12T11:47:00.183Z,67.40
2018-04-12T11:49:27.766Z,60.80
2018-04-12T11:51:55.303Z,59.20
2018-04-12T11:54:22.834Z,59.50
2018-04-12T11:56:50.373Z,55.60
2018-04-12T11:59:17.916Z,55.90
2018-04-12T12:01:45.512Z,55.10
2018-04-12T12:04:13.010Z,59.90
2018-04-12T12:06:41.336Z,58.20
2018-04-12T12:09:08.875Z,58.20
2018-04-12T12:11:36.420Z,56.00
2018-04-12T12:14:04.735Z,53.50
2018-04-12T12:16:32.287Z,53.10
2018-04-12T12:18:59.846Z,55.40
2018-04-12T12:21:27.359Z,53.00
2018-04-12T12:23:55.647Z,57.70
2018-04-12T12:26:23.165Z,57.60
2018-04-12T12:28:50.742Z,57.40
2018-04-12T12:31:19.037Z,59.10
2018-04-12T12:33:47.325Z,60.00
2018-04-12T12:36:14.889Z,59.90
2018-04-12T12:38:42.418Z,59.80
2018-04-12T12:41:10.696Z,58.00
2018-04-12T12:43:44.970Z,60.30
2018-04-12T12:46:18.363Z,60.20
2018-04-12T12:48:51.707Z,59.50
2018-04-12T12:51:25.062Z,59.10
2018-04-12T12:53:58.371Z,55.50
2018-04-12T12:56:25.902Z,53.70
2018-04-12T12:58:59.370Z,54.90
2018-04-12T13:01:26.910Z,56.20
2018-04-12T13:03:55.225Z,56.50
2018-04-12T13:06:22.737Z,56.60
2018-04-12T13:08:56.104Z,57.30
2018-04-12T13:11:29.277Z,55.90
2018-04-12T13:13:56.781Z,59.60
2018-04-12T13:16:24.323Z,58.20
2018-04-12T13:18:51.840Z,59.70
2018-04-12T13:21:19.350Z,59.60
2018-04-12T13:23:58.738Z,58.20
2018-04-12T13:26:26.253Z,58.70
2018-04-12T13:28:53.817Z,59.70
2018-04-12T13:31:27.120Z,62.50
2018-04-12T13:33:55.402Z,63.70
2018-04-12T13:36:22.936Z,63.40
2018-04-12T13:38:50.454Z,62.70
2018-04-12T13:41:18.005Z,62.50
2018-04-12T13:43:45.553Z,64.60
2018-04-12T13:46:13.126Z,65.10
2018-04-12T13:48:40.665Z,61.60
2018-04-12T13:51:08.196Z,61.30
2018-04-12T13:53:42.264Z,57.50
2018-04-12T13:56:09.788Z,57.50
2018-04-12T13:58:37.306Z,56.30
2018-04-12T14:01:04.832Z,54.20
2018-04-12T14:03:32.348Z,54.20
2018-04-12T14:05:59.905Z,56.40
2018-04-12T14:08:28.218Z,52.40
2018-04-12T14:11:01.780Z,52.30
2018-04-12T14:13:30.061Z,55.90
2018-04-12T14:16:09.224Z,55.90
2018-04-12T14:18:36.767Z,54.50
2018-04-12T14:21:10.030Z,54.60
2018-04-12T14:23:44.024Z,58.00
2018-04-12T14:26:11.560Z,57.80
2018-04-12T14:28:44.861Z,57.70
2018-04-12T14:31:18.197Z,57.90
2018-04-12T14:33:45.731Z,56.50
2018-04-12T14:36:19.302Z,56.30
2018-04-12T14:38:46.775Z,53.20
2018-04-12T14:41:20.236Z,55.60
2018-04-12T14:43:47.756Z,54.50
2018-04-12T14:46:26.856Z,53.60
2018-04-12T14:48:54.411Z,53.30
2018-04-12T14:51:21.977Z,54.20
2018-04-12T14:53:49.537Z,55.00
2018-04-12T14:56:17.120Z,54.20
2018-04-12T14:58:50.268Z,56.60
2018-04-12T15:01:17.792Z,53.90
2018-04-12T15:03:51.141Z,53.20
2018-04-12T15:06:18.739Z,52.80
2018-04-12T15:08:47.001Z,54.30
2018-04-12T15:11:15.315Z,58.50
2018-04-12T15:13:48.584Z,58.60
2018-04-12T15:16:16.095Z,55.90
2018-04-12T15:18:43.635Z,55.60
2018-04-12T15:21:11.149Z,55.40
2018-04-12T15:23:38.655Z,55.30
2018-04-12T15:26:11.932Z,55.90
2018-04-12T15:28:45.354Z,55.00
2018-04-12T15:31:12.909Z,56.20
2018-04-12T15:33:40.422Z,56.30
2018-04-12T15:36:08.742Z,54.70
2018-04-12T15:38:36.295Z,54.70
2018-04-12T15:41:03.848Z,54.80
2018-04-12T15:43:31.400Z,55.20
2018-04-12T15:45:58.950Z,54.80
2018-04-12T15:48:27.219Z,55.20
2018-04-12T15:50:54.738Z,55.20
2018-04-12T15:53:22.286Z,55.10
2018-04-12T15:55:49.807Z,55.30
2018-04-12T15:58:23.333Z,54.70
2018-04-12T16:00:50.891Z,56.00
2018-04-12T16:03:18.415Z,55.80
2018-04-12T16:05:45.923Z,55.50
2018-04-12T16:08:13.468Z,56.00
2018-04-12T16:10:40.987Z,58.40
2018-04-12T16:13:08.502Z,56.40
2018-04-12T16:15:36.069Z,56.50
2018-04-12T16:18:09.508Z,57.20
2018-04-12T16:20:37.125Z,57.20
2018-04-12T16:23:04.731Z,57.80
2018-04-12T16:25:43.944Z,57.70
2018-04-12T16:28:11.476Z,58.30
2018-04-12T16:30:44.784Z,58.10
2018-04-12T16:33:18.189Z,58.80
2018-04-12T16:35:45.729Z,58.30
2018-04-12T16:38:19.889Z,58.80
2018-04-12T16:40:47.412Z,58.80
2018-04-12T16:43:15.737Z,57.30
2018-04-12T16:45:49.149Z,57.30
2018-04-12T16:48:22.288Z,57.10
2018-04-12T16:50:50.590Z,57.60
2018-04-12T16:53:18.095Z,57.50
2018-04-12T16:55:51.588Z,56.90
2018-04-12T16:58:25.009Z,56.80
2018-04-12T17:00:53.329Z,56.80
2018-04-12T17:03:20.843Z,56.70
2018-04-12T17:05:49.151Z,56.80
2018-04-12T17:08:16.669Z,56.70
2018-04-12T17:10:56.511Z,55.30
2018-04-12T17:13:30.812Z,55.20
2018-04-12T17:15:58.351Z,54.50
2018-04-12T17:18:25.905Z,56.00
2018-04-12T17:20:59.984Z,58.70
2018-04-12T17:23:27.536Z,58.70
2018-04-12T17:26:00.992Z,62.20
2018-04-12T17:28:29.323Z,67.70
2018-04-12T17:30:56.858Z,67.70
2018-04-12T17:33:24.406Z,67.20
2018-04-12T17:35:51.976Z,67.30
2018-04-12T17:38:20.278Z,67.70
2018-04-12T17:40:53.517Z,67.60
2018-04-12T17:43:21.073Z,68.80
2018-04-12T17:45:48.599Z,69.10
2018-04-12T17:48:16.120Z,69.60
2018-04-12T17:50:44.423Z,69.80
2018-04-12T17:53:23.645Z,69.80
2018-04-12T17:55:51.198Z,69.40
2018-04-12T17:58:18.737Z,69.70
2018-04-12T18:00:51.963Z,69.70
2018-04-12T18:03:19.529Z,70.50
2018-04-12T18:05:47.075Z,70.30
2018-04-12T18:08:14.629Z,71.00
2018-04-12T18:10:42.192Z,71.40
2018-04-12T18:13:09.740Z,70.10
2018-04-12T18:15:43.151Z,72.20
2018-04-12T18:18:10.691Z,72.10
2018-04-12T18:20:39.006Z,71.80
2018-04-12T18:23:12.488Z,71.80
2018-04-12T18:25:45.828Z,71.60
2018-04-12T18:28:14.149Z,72.20
2018-04-12T18:30:41.710Z,72.20
2018-04-12T18:33:09.231Z,71.70
2018-04-12T18:35:36.748Z,71.20
2018-04-12T18:38:09.947Z,71.40
2018-04-12T18:40:37.506Z,73.00
2018-04-12T18:43:10.892Z,77.20
2018-04-12T18:45:44.330Z,74.80
2018-04-12T18:48:17.519Z,76.30
2018-04-12T18:50:45.063Z,77.50
2018-04-12T18:53:12.597Z,77.90
2018-04-12T18:55:51.818Z,78.70
2018-04-12T18:58:19.350Z,78.60
2018-04-12T19:00:52.814Z,79.80
2018-04-12T19:03:20.373Z,80.00
2018-04-12T19:05:47.962Z,80.60
2018-04-12T19:08:16.256Z,82.00
2018-04-12T19:10:43.782Z,81.90
2018-04-12T19:13:17.131Z,82.30
2018-04-12T19:15:44.684Z,82.30
2018-04-12T19:18:12.201Z,82.70
2018-04-12T19:20:45.545Z,83.40
2018-04-12T19:23:13.107Z,84.10
2018-04-12T19:25:40.673Z,86.70
2018-04-12T19:28:08.198Z,87.90
2018-04-12T19:30:35.723Z,89.90
2018-04-12T19:33:03.243Z,89.60
2018-04-12T19:35:30.813Z,89.30
2018-04-12T19:37:58.349Z,89.50
2018-04-12T19:40:25.879Z,89.20
2018-04-12T19:42:53.440Z,89.10
2018-04-12T19:45:21.878Z,89.40
2018-04-12T19:47:49.400Z,90.30
2018-04-12T19:50:22.634Z,89.40
2018-04-12T19:52:56.162Z,90.70
2018-04-12T19:55:24.505Z,90.40
2018-04-12T19:57:52.053Z,90.40
2018-04-12T20:00:19.624Z,90.90
2018-04-12T20:02:47.164Z,91.50
2018-04-12T20:05:20.281Z,90.00
2018-04-12T20:07:47.827Z,90.10
2018-04-12T20:10:21.223Z,89.60
2018-04-12T20:12:48.774Z,90.20
2018-04-12T20:15:16.329Z,90.30
2018-04-12T20:17:55.537Z,90.90
2018-04-12T20:20:23.059Z,91.30
2018-04-12T20:22:51.402Z,91.10
2018-04-12T20:25:18.922Z,91.00
2018-04-12T20:27:46.488Z,91.00
2018-04-12T20:30:14.011Z,91.10
2018-04-12T20:32:42.686Z,91.10
2018-04-12T20:35:10.248Z,91.40
2018-04-12T20:37:37.826Z,91.40
2018-04-12T20:40:05.376Z,92.00
2018-04-12T20:42:33.663Z,92.20
2018-04-12T20:45:01.983Z,91.80
2018-04-12T20:47:29.546Z,91.80
2018-04-12T20:50:08.638Z,91.30
2018-04-12T20:52:36.165Z,91.60
2018-04-12T20:55:03.705Z,91.90
2018-04-12T20:57:31.228Z,93.10
2018-04-12T20:59:58.793Z,92.40
2018-04-12T21:02:33.072Z,94.00
2018-04-12T21:05:01.388Z,94.40
2018-04-12T21:07:28.948Z,94.30
2018-04-12T21:09:56.508Z,94.10
2018-04-12T21:12:24.077Z,94.10
2018-04-12T21:15:03.389Z,94.00
2018-04-12T21:17:36.867Z,94.20
2018-04-12T21:20:10.252Z,93.60
2018-04-12T21:22:38.545Z,93.60
2018-04-12T21:25:06.084Z,93.60
2018-04-12T21:27:34.370Z,94.10
2018-04-12T21:30:07.708Z,94.10
2018-04-12T21:32:35.268Z,94.40
2018-04-12T21:35:08.603Z,94.00
2018-04-12T21:37:36.890Z,94.80
2018-04-12T21:40:17.051Z,94.80
2018-04-12T21:42:50.431Z,94.80
2018-04-12T21:45:24.519Z,95.50
2018-04-12T21:47:52.035Z,95.40
2018-04-12T21:50:19.585Z,95.60
2018-04-12T21:52:52.911Z,95.50
2018-04-12T21:55:32.236Z,95.20
2018-04-12T21:57:59.809Z,95.20
2018-04-12T22:00:39.021Z,95.60
2018-04-12T22:03:12.157Z,95.70
2018-04-12T22:05:45.578Z,96.10
2018-04-12T22:08:13.132Z,96.90
2018-04-12T22:10:47.350Z,97.20
2018-04-12T22:13:21.401Z,97.00
2018-04-12T22:15:48.911Z,96.90
2018-04-12T22:18:22.270Z,97.00
2018-04-12T22:20:49.792Z,97.20
2018-04-12T22:23:17.315Z,97.10
2018-04-12T22:25:45.614Z,97.20
2018-04-12T22:28:13.129Z,97.00
2018-04-12T22:30:46.643Z,97.10
2018-04-12T22:33:14.927Z,97.60
2018-04-12T22:35:43.211Z,98.40
2018-04-12T22:38:11.535Z,98.50
2018-04-12T22:40:39.083Z,98.50
2018-04-12T22:43:06.603Z,98.40
2018-04-12T22:45:46.464Z,99.30
2018-04-12T22:48:13.990Z,99.30
2018-04-12T22:50:41.503Z,99.30
2018-04-12T22:53:09.022Z,99.70
2018-04-12T22:55:37.326Z,99.60
2018-04-12T22:58:04.884Z,99.60
2018-04-12T23:00:32.406Z,99.60
2018-04-12T23:03:05.750Z,99.20
2018-04-12T23:05:33.306Z,99.20
2018-04-12T23:08:00.830Z,99.60
2018-04-12T23:10:29.114Z,99.70
2018-04-12T23:12:57.394Z,99.90
2018-04-12T23:15:36.691Z,99.80
2018-04-12T23:18:10.061Z,99.90
2018-04-12T23:20:43.409Z,99.90
2018-04-12T23:23:17.494Z,99.90
2018-04-12T23:25:45.068Z,99.90
2018-04-12T23:28:12.599Z,99.90
2018-04-12T23:30:40.141Z,99.90
2018-04-12T23:33:07.672Z,99.90
2018-04-12T23:35:41.020Z,99.90
2018-04-12T23:38:08.536Z,99.90
2018-04-12T23:40:36.047Z,99.90
2018-04-12T23:43:03.582Z,99.90
2018-04-12T23:45:37.039Z,99.90
2018-04-12T23:48:04.589Z,99.90
2018-04-12T23:50:32.152Z,99.90
2018-04-12T23:52:59.695Z,99.90
2018-04-12T23:55:33.736Z,99.90
2018-04-12T23:58:01.284Z,99.90
